createdAt,value
2023-02-15T00:01:52.320Z,4.09
2023-02-15T00:03:53.613Z,4.09
2023-02-15T00:07:56.912Z,4.09
2023-02-15T00:09:58.520Z,4.09
2023-02-15T00:12:00.099Z,4.09
2023-02-15T00:14:02.044Z,4.09
2023-02-15T00:18:05.236Z,4.08
2023-02-15T00:20:06.604Z,4.08
2023-02-15T00:24:09.915Z,4.08
2023-02-15T00:26:11.149Z,4.08
2023-02-15T00:28:12.307Z,4.08
2023-02-15T00:30:13.634Z,4.08
2023-02-15T00:34:17.325Z,4.08
2023-02-15T00:36:19.205Z,4.08
2023-02-15T00:38:20.551Z,4.08
2023-02-15T00:40:22.133Z,4.08
2023-02-15T00:42:23.290Z,4.08
2023-02-15T00:44:25.001Z,4.08
2023-02-15T00:46:26.666Z,4.08
2023-02-15T00:50:29.496Z,4.08
2023-02-15T00:52:30.740Z,4.08
2023-02-15T00:54:32.677Z,4.08
2023-02-15T00:56:33.931Z,4.08
2023-02-15T01:00:36.636Z,4.08
2023-02-15T01:02:38.096Z,4.08
2023-02-15T01:06:41.315Z,4.08
2023-02-15T01:08:42.962Z,4.08
2023-02-15T01:10:44.492Z,4.08
2023-02-15T01:12:45.671Z,4.08
2023-02-15T01:16:48.860Z,4.08
2023-02-15T01:18:50.577Z,4.08
2023-02-15T01:20:52.475Z,4.08
2023-02-15T01:22:53.927Z,4.08
2023-02-15T01:24:54.988Z,4.08
2023-02-15T01:26:56.204Z,4.08
2023-02-15T01:28:58.083Z,4.07
2023-02-15T01:33:01.211Z,4.07
2023-02-15T01:35:02.700Z,4.07
2023-02-15T01:37:04.454Z,4.08
2023-02-15T01:39:06.407Z,4.07
2023-02-15T01:43:10.088Z,4.07
2023-02-15T01:45:11.252Z,4.07
2023-02-15T01:47:12.628Z,4.07
2023-02-15T01:49:14.215Z,4.07
2023-02-15T01:51:16.049Z,4.07
2023-02-15T01:53:17.134Z,4.07
2023-02-15T01:55:19.019Z,4.07
2023-02-15T01:59:21.659Z,4.07
2023-02-15T02:01:23.021Z,4.07
2023-02-15T02:03:24.213Z,4.07
2023-02-15T02:05:25.743Z,4.07
2023-02-15T02:07:27.834Z,4.06
2023-02-15T02:09:29.795Z,4.07
2023-02-15T02:11:30.893Z,4.07
2023-02-15T02:15:34.088Z,4.06
2023-02-15T02:17:36.030Z,4.06
2023-02-15T02:19:37.808Z,4.06
2023-02-15T02:21:39.646Z,4.07
2023-02-15T02:25:42.597Z,4.06
2023-02-15T02:27:43.926Z,4.06
2023-02-15T02:29:44.976Z,4.06
2023-02-15T02:31:47.117Z,4.06
2023-02-15T02:33:48.342Z,4.06
2023-02-15T02:35:49.640Z,4.06
2023-02-15T02:37:51.228Z,4.06
2023-02-15T02:39:52.526Z,4.06
2023-02-15T02:43:55.857Z,4.06
2023-02-15T02:45:57.197Z,4.06
2023-02-15T02:47:59.135Z,4.06
2023-02-15T02:50:01.027Z,4.06
2023-02-15T02:52:02.203Z,4.06
2023-02-15T02:54:04.181Z,4.06
2023-02-15T02:58:06.514Z,4.06
2023-02-15T03:00:08.380Z,4.06
2023-02-15T03:02:10.122Z,4.06
2023-02-15T03:04:11.657Z,4.06
2023-02-15T03:06:12.822Z,4.06
2023-02-15T03:08:14.753Z,4.06
2023-02-15T03:10:16.440Z,4.06
2023-02-15T03:12:18.441Z,4.06
2023-02-15T03:14:19.542Z,4.06
2023-02-15T03:16:21.326Z,4.06
2023-02-15T03:18:22.525Z,4.06
2023-02-15T03:20:23.857Z,4.06
2023-02-15T03:24:27.381Z,4.06
2023-02-15T03:26:28.404Z,4.05
2023-02-15T03:28:30.197Z,4.06
2023-02-15T03:30:32.048Z,4.05
2023-02-15T03:32:33.204Z,4.06
2023-02-15T03:34:34.844Z,4.06
2023-02-15T03:36:36.463Z,4.05
2023-02-15T03:40:39.916Z,4.06
2023-02-15T03:42:41.903Z,4.05
2023-02-15T03:44:43.734Z,4.05
2023-02-15T03:46:45.780Z,4.05
2023-02-15T03:48:47.649Z,4.06
2023-02-15T03:50:49.253Z,4.05
2023-02-15T03:52:50.521Z,4.05
2023-02-15T03:56:53.852Z,4.05
2023-02-15T03:58:55.324Z,4.05
2023-02-15T04:00:57.005Z,4.05
2023-02-15T04:02:58.557Z,4.05
2023-02-15T04:07:00.669Z,4.05
2023-02-15T04:09:02.529Z,4.05
2023-02-15T04:13:06.104Z,4.05
2023-02-15T04:15:07.705Z,4.05
2023-02-15T04:17:09.686Z,4.04
2023-02-15T04:19:11.467Z,4.04
2023-02-15T04:23:14.605Z,4.04
2023-02-15T04:25:15.935Z,4.04
2023-02-15T04:27:17.839Z,4.04
2023-02-15T04:29:18.912Z,4.04
2023-02-15T04:31:20.532Z,4.04
2023-02-15T04:33:21.580Z,4.04
2023-02-15T04:35:22.836Z,4.04
2023-02-15T04:39:25.310Z,4.04
2023-02-15T04:41:27.164Z,4.04
2023-02-15T04:43:29.208Z,4.04
2023-02-15T04:46:14.638Z,4.04
2023-02-15T04:48:15.885Z,4.04
2023-02-15T04:52:18.884Z,4.04
2023-02-15T04:54:20.075Z,4.04
2023-02-15T04:56:21.138Z,4.04
2023-02-15T05:00:23.897Z,4.04
2023-02-15T05:02:25.760Z,4.04
2023-02-15T05:04:27.203Z,4.04
2023-02-15T05:06:29.257Z,4.04
2023-02-15T05:08:30.721Z,4.04
2023-02-15T05:10:32.139Z,4.04
2023-02-15T05:12:33.759Z,4.04
2023-02-15T05:16:36.729Z,4.04
2023-02-15T05:18:37.866Z,4.04
2023-02-15T05:20:39.185Z,4.04
2023-02-15T05:22:41.056Z,4.04
2023-02-15T05:26:44.458Z,4.03
2023-02-15T05:28:46.260Z,4.03
2023-02-15T05:30:47.769Z,4.04
2023-02-15T05:32:49.703Z,4.04
2023-02-15T05:34:51.205Z,4.04
2023-02-15T05:36:52.387Z,4.03
2023-02-15T05:38:53.890Z,4.04
2023-02-15T05:42:57.337Z,4.03
2023-02-15T05:44:58.511Z,4.03
2023-02-15T05:49:01.407Z,4.03
2023-02-15T05:51:02.674Z,4.03
2023-02-15T05:53:04.092Z,4.04
2023-02-15T05:55:05.361Z,4.03
2023-02-15T05:59:08.411Z,4.03
2023-02-15T06:01:09.490Z,4.03
2023-02-15T06:03:11.316Z,4.03
2023-02-15T06:05:13.264Z,4.03
2023-02-15T06:09:16.112Z,4.03
2023-02-15T06:11:17.943Z,4.03
2023-02-15T06:13:19.193Z,4.03
2023-02-15T06:15:20.860Z,4.03
2023-02-15T06:17:22.775Z,4.03
2023-02-15T06:19:24.090Z,4.03
2023-02-15T06:21:25.905Z,4.03
2023-02-15T06:25:28.674Z,4.03
2023-02-15T06:27:30.009Z,4.02
2023-02-15T06:31:33.139Z,4.03
2023-02-15T06:33:34.248Z,4.03
2023-02-15T06:35:36.226Z,4.03
2023-02-15T06:37:37.429Z,4.03
2023-02-15T06:41:40.776Z,4.02
2023-02-15T06:43:42.562Z,4.02
2023-02-15T06:45:44.026Z,4.02
2023-02-15T06:47:45.613Z,4.02
2023-02-15T06:51:57.130Z,4.02
2023-02-15T06:53:49.480Z,4.02
2023-02-15T06:55:51.348Z,4.02
2023-02-15T06:57:52.780Z,4.02
2023-02-15T06:59:54.637Z,4.02
2023-02-15T07:01:55.883Z,4.02
2023-02-15T07:03:57.041Z,4.02
2023-02-15T07:08:00.612Z,4.02
2023-02-15T07:10:02.241Z,4.02
2023-02-15T07:12:03.409Z,4.02
2023-02-15T07:14:05.181Z,4.02
2023-02-15T07:16:06.413Z,4.02
2023-02-15T07:18:08.114Z,4.02
2023-02-15T07:20:09.713Z,4.02
2023-02-15T07:24:12.777Z,4.02
2023-02-15T07:26:14.608Z,4.02
2023-02-15T07:28:16.648Z,4.02
2023-02-15T07:30:18.036Z,4.02
2023-02-15T07:32:19.073Z,4.02
2023-02-15T07:34:20.362Z,4.02
2023-02-15T07:36:21.616Z,4.02
2023-02-15T07:40:24.549Z,4.02
2023-02-15T07:42:25.990Z,4.02
2023-02-15T07:44:27.174Z,4.02
2023-02-15T07:46:29.194Z,4.02
2023-02-15T07:50:31.451Z,4.02
2023-02-15T07:52:33.454Z,4.02
2023-02-15T07:54:35.309Z,4.01
2023-02-15T07:56:37.239Z,4.02
2023-02-15T07:58:38.813Z,4.01
2023-02-15T08:00:39.886Z,4.02
2023-02-15T08:02:41.116Z,4.01
2023-02-15T08:06:43.325Z,4.01
2023-02-15T08:08:44.990Z,4.02
2023-02-15T08:10:46.408Z,4.02
2023-02-15T08:12:48.166Z,4.01
2023-02-15T08:14:49.467Z,4.02
2023-02-15T08:16:51.517Z,4.02
2023-02-15T08:18:53.142Z,4.01
2023-02-15T08:22:56.551Z,4.02
2023-02-15T08:24:57.973Z,4.02
2023-02-15T08:26:59.234Z,4.02
2023-02-15T08:29:00.974Z,4.01
2023-02-15T08:33:03.327Z,4.02
2023-02-15T08:35:04.881Z,4.02
2023-02-15T08:39:08.070Z,4.01
2023-02-15T08:41:09.600Z,4.02
2023-02-15T08:43:10.661Z,4.02
2023-02-15T08:45:12.420Z,4.02
2023-02-15T08:49:15.457Z,4.02
2023-02-15T08:51:17.076Z,4.02
2023-02-15T08:53:18.476Z,4.02
2023-02-15T08:55:20.374Z,4.02
2023-02-15T08:57:21.563Z,4.03
2023-02-15T08:59:23.349Z,4.03
2023-02-15T09:01:24.739Z,4.02
2023-02-15T09:05:28.205Z,4.03
2023-02-15T09:07:29.936Z,4.02
2023-02-15T09:09:31.869Z,4.02
2023-02-15T09:11:33.329Z,4.02
2023-02-15T09:15:35.771Z,4.03
2023-02-15T09:17:37.599Z,4.03
2023-02-15T09:19:38.988Z,4.03
2023-02-15T09:21:40.617Z,4.02
2023-02-15T09:23:41.750Z,4.02
2023-02-15T09:25:43.226Z,4.03
2023-02-15T09:27:44.493Z,4.04
2023-02-15T09:31:47.611Z,4.04
2023-02-15T09:33:48.803Z,4.05
2023-02-15T09:37:52.245Z,4.05
2023-02-15T09:39:53.820Z,4.05
2023-02-15T09:43:56.124Z,4.06
2023-02-15T09:47:59.095Z,4.06
2023-02-15T09:50:00.740Z,4.06
2023-02-15T09:52:02.527Z,4.06
2023-02-15T09:54:03.656Z,4.06
2023-02-15T09:58:06.907Z,4.06
2023-02-15T10:00:08.317Z,4.07
2023-02-15T10:02:09.479Z,4.07
2023-02-15T10:04:10.927Z,4.08
2023-02-15T10:06:12.573Z,4.08
2023-02-15T10:08:14.419Z,4.07
2023-02-15T10:10:16.210Z,4.08
2023-02-15T10:14:19.236Z,4.08
2023-02-15T10:16:20.438Z,4.09
2023-02-15T10:18:21.979Z,4.09
2023-02-15T10:20:23.815Z,4.1
2023-02-15T10:22:25.592Z,4.1
2023-02-15T10:24:26.777Z,4.12
2023-02-15T10:26:27.895Z,4.12
2023-02-15T10:30:32.490Z,4.13
2023-02-15T10:32:32.506Z,4.13
2023-02-15T10:34:34.205Z,4.14
2023-02-15T10:36:36.129Z,4.14
2023-02-15T10:38:37.671Z,4.15
2023-02-15T10:40:39.513Z,4.15
2023-02-15T10:42:41.004Z,4.15
2023-02-15T10:46:44.117Z,4.16
2023-02-15T10:48:45.247Z,4.16
2023-02-15T10:50:46.619Z,4.16
2023-02-15T10:52:47.615Z,4.16
2023-02-15T10:54:49.178Z,4.16
2023-02-15T10:56:50.964Z,4.17
2023-02-15T11:00:53.070Z,4.17
2023-02-15T11:02:54.534Z,4.17
2023-02-15T11:04:56.285Z,4.17
2023-02-15T11:06:57.834Z,4.17
2023-02-15T11:08:59.185Z,4.17
2023-02-15T11:11:00.731Z,4.17
2023-02-15T11:13:01.318Z,4.18
2023-02-15T11:15:02.955Z,4.18
2023-02-15T11:19:05.346Z,4.18
2023-02-15T11:21:06.680Z,4.18
2023-02-15T11:23:08.909Z,4.18
2023-02-15T11:25:10.744Z,4.19
2023-02-15T11:29:13.344Z,4.19
2023-02-15T11:31:15.192Z,4.19
2023-02-15T11:31:58.981Z,4.19
2023-02-15T11:34:00.741Z,4.19
2023-02-15T11:36:02.520Z,4.19
2023-02-15T11:40:04.991Z,4.19
2023-02-15T11:42:06.872Z,4.2
2023-02-15T11:44:07.903Z,4.19
2023-02-15T11:46:11.302Z,4.19
2023-02-15T11:48:10.511Z,4.19
2023-02-15T11:50:12.220Z,4.2
2023-02-15T11:52:13.208Z,4.2
2023-02-15T11:56:15.639Z,4.2
2023-02-15T11:58:16.556Z,4.2
2023-02-15T12:00:17.500Z,4.2
2023-02-15T12:02:19.333Z,4.2
2023-02-15T12:06:22.243Z,4.2
2023-02-15T12:08:23.852Z,4.2
2023-02-15T12:10:25.422Z,4.2
2023-02-15T12:12:26.982Z,4.2
2023-02-15T12:14:27.925Z,4.2
2023-02-15T12:16:29.036Z,4.2
2023-02-15T12:18:30.915Z,4.2
2023-02-15T12:22:33.451Z,4.2
2023-02-15T12:24:34.803Z,4.2
2023-02-15T12:28:40.698Z,4.2
2023-02-15T12:30:39.876Z,4.2
2023-02-15T12:32:41.083Z,4.2
2023-02-15T12:34:42.728Z,4.2
2023-02-15T12:38:46.148Z,4.19
2023-02-15T12:40:47.586Z,4.18
2023-02-15T12:42:49.258Z,4.19
2023-02-15T12:44:50.791Z,4.18
2023-02-15T12:48:53.437Z,4.18
2023-02-15T12:50:55.127Z,4.19
2023-02-15T12:52:55.629Z,4.19
2023-02-15T12:54:57.095Z,4.18
2023-02-15T12:56:58.783Z,4.18
2023-02-15T12:59:00.251Z,4.18
2023-02-15T13:01:01.496Z,4.18
2023-02-15T13:05:03.837Z,4.18
2023-02-15T13:07:05.406Z,4.18
2023-02-15T13:09:06.808Z,4.18
2023-02-15T13:11:08.609Z,4.18
2023-02-15T13:13:09.771Z,4.18
2023-02-15T13:15:11.627Z,4.18
2023-02-15T13:17:13.180Z,4.18
2023-02-15T13:21:15.848Z,4.18
2023-02-15T13:23:18.292Z,4.17
2023-02-15T13:25:19.458Z,4.17
2023-02-15T13:27:20.858Z,4.17
2023-02-15T13:29:21.779Z,4.17
2023-02-15T13:31:23.598Z,4.17
2023-02-15T13:33:24.761Z,4.17
2023-02-15T13:37:28.309Z,4.17
2023-02-15T13:39:30.102Z,4.17
2023-02-15T13:41:31.283Z,4.17
2023-02-15T13:43:33.119Z,4.17
2023-02-15T13:47:35.016Z,4.17
2023-02-15T13:49:36.487Z,4.17
2023-02-15T13:51:37.892Z,4.17
2023-02-15T13:53:38.939Z,4.17
2023-02-15T13:55:40.633Z,4.17
2023-02-15T13:57:42.010Z,4.16
2023-02-15T13:59:43.014Z,4.17
2023-02-15T14:03:45.130Z,4.17
2023-02-15T14:05:46.818Z,4.17
2023-02-15T14:07:48.241Z,4.17
2023-02-15T14:09:49.458Z,4.17
2023-02-15T14:11:51.014Z,4.17
2023-02-15T14:13:52.351Z,4.17
2023-02-15T14:15:53.260Z,4.17
2023-02-15T14:19:55.650Z,4.17
2023-02-15T14:21:56.645Z,4.17
2023-02-15T14:23:57.922Z,4.17
2023-02-15T14:25:59.064Z,4.16
2023-02-15T14:30:02.133Z,4.17
2023-02-15T14:32:03.212Z,4.16
2023-02-15T14:36:05.647Z,4.16
2023-02-15T14:38:06.596Z,4.16
2023-02-15T14:40:07.643Z,4.16
2023-02-15T14:42:09.179Z,4.16
2023-02-15T14:46:12.534Z,4.16
2023-02-15T14:48:14.146Z,4.16
2023-02-15T14:50:15.955Z,4.16
2023-02-15T14:52:16.845Z,4.16
2023-02-15T14:54:17.992Z,4.16
2023-02-15T14:56:20.537Z,4.16
2023-02-15T14:58:21.286Z,4.16
2023-02-15T15:02:23.757Z,4.16
2023-02-15T15:04:33.312Z,4.16
2023-02-15T15:06:26.942Z,4.16
2023-02-15T15:08:29.248Z,4.16
2023-02-15T15:12:32.171Z,4.16
2023-02-15T15:14:33.929Z,4.16
2023-02-15T15:16:34.939Z,4.16
2023-02-15T15:18:36.694Z,4.16
2023-02-15T15:20:38.435Z,4.16
2023-02-15T15:22:40.054Z,4.16
2023-02-15T15:24:42.686Z,4.16
2023-02-15T15:28:45.501Z,4.15
2023-02-15T15:30:47.063Z,4.15
2023-02-15T15:34:50.437Z,4.15
2023-02-15T15:36:51.657Z,4.16
2023-02-15T15:38:52.764Z,4.15
2023-02-15T15:40:54.300Z,4.15
2023-02-15T15:44:56.954Z,4.15
2023-02-15T15:46:58.740Z,4.15
2023-02-15T15:48:59.928Z,4.15
2023-02-15T15:51:01.421Z,4.15
2023-02-15T15:55:04.198Z,4.15
2023-02-15T15:57:05.382Z,4.15
2023-02-15T15:59:07.065Z,4.15
2023-02-15T16:01:08.655Z,4.15
2023-02-15T16:03:11.818Z,4.15
2023-02-15T16:05:10.816Z,4.14
2023-02-15T16:07:12.720Z,4.14
2023-02-15T16:11:15.132Z,4.14
2023-02-15T16:13:16.461Z,4.14
2023-02-15T16:15:17.463Z,4.14
2023-02-15T16:17:25.674Z,4.14
2023-02-15T16:19:32.952Z,4.14
2023-02-15T16:21:28.816Z,4.14
2023-02-15T16:23:57.721Z,4.14
2023-02-15T16:25:29.831Z,4.14
2023-02-15T16:27:47.117Z,4.14
2023-02-15T16:31:22.351Z,4.14
2023-02-15T16:33:30.908Z,4.14
2023-02-15T16:37:33.646Z,4.14
2023-02-15T16:39:34.907Z,4.14
2023-02-15T16:43:37.426Z,4.14
2023-02-15T16:45:38.870Z,4.14
2023-02-15T16:47:40.641Z,4.14
2023-02-15T16:49:42.228Z,4.14
2023-02-15T16:53:45.481Z,4.14
2023-02-15T16:55:47.238Z,4.14
2023-02-15T16:57:48.248Z,4.13
2023-02-15T16:59:50.029Z,4.14
2023-02-15T17:01:51.138Z,4.13
2023-02-15T17:03:53.255Z,4.14
2023-02-15T17:05:54.344Z,4.13
2023-02-15T17:09:56.834Z,4.13
2023-02-15T17:11:58.164Z,4.13
2023-02-15T17:13:59.206Z,4.13
2023-02-15T17:16:01.160Z,4.13
2023-02-15T17:18:01.763Z,4.13
2023-02-15T17:20:03.301Z,4.13
2023-02-15T17:22:04.375Z,4.13
2023-02-15T17:26:07.660Z,4.13
2023-02-15T17:28:09.623Z,4.13
2023-02-15T17:32:13.401Z,4.12
2023-02-15T17:36:17.131Z,4.13
2023-02-15T17:38:18.716Z,4.13
2023-02-15T17:42:21.410Z,4.13
2023-02-15T17:44:23.071Z,4.12
2023-02-15T17:46:24.934Z,4.13
2023-02-15T17:48:26.432Z,4.12
2023-02-15T17:52:30.209Z,4.13
2023-02-15T17:54:32.182Z,4.12
2023-02-15T17:56:33.520Z,4.12
2023-02-15T17:58:34.598Z,4.12
2023-02-15T18:00:36.178Z,4.12
2023-02-15T18:02:37.635Z,4.12
2023-02-15T18:04:39.355Z,4.12
2023-02-15T18:08:42.369Z,4.12
2023-02-15T18:10:44.367Z,4.12
2023-02-15T18:12:45.920Z,4.12
2023-02-15T18:14:47.875Z,4.12
2023-02-15T18:17:33.045Z,4.12
2023-02-15T18:19:34.679Z,4.12
2023-02-15T18:21:36.414Z,4.12
2023-02-15T18:23:37.975Z,4.12
2023-02-15T18:25:39.680Z,4.12
2023-02-15T18:29:43.075Z,4.12
2023-02-15T18:31:44.841Z,4.12
2023-02-15T18:33:46.584Z,4.12
2023-02-15T18:35:47.656Z,4.12
2023-02-15T18:37:49.705Z,4.12
2023-02-15T18:39:51.363Z,4.11
2023-02-15T18:41:53.166Z,4.11
2023-02-15T18:45:55.972Z,4.11
2023-02-15T18:47:57.387Z,4.11
2023-02-15T18:49:58.460Z,4.11
2023-02-15T18:52:00.297Z,4.11
2023-02-15T18:56:03.007Z,4.12
2023-02-15T18:58:04.463Z,4.12
2023-02-15T19:00:06.039Z,4.11
2023-02-15T19:02:07.946Z,4.11
2023-02-15T19:06:10.959Z,4.11
2023-02-15T19:08:12.528Z,4.11
2023-02-15T19:12:15.104Z,4.11
2023-02-15T19:18:19.602Z,4.11
2023-02-15T19:20:20.865Z,4.11
2023-02-15T19:24:25.050Z,4.11
2023-02-15T19:26:33.429Z,4.11
2023-02-15T19:28:27.438Z,4.11
2023-02-15T19:30:29.400Z,4.11
2023-02-15T19:32:30.898Z,4.11
2023-02-15T19:36:34.126Z,4.1
2023-02-15T19:38:35.219Z,4.1
2023-02-15T19:40:36.374Z,4.1
2023-02-15T19:42:37.800Z,4.1
2023-02-15T19:44:39.475Z,4.1
2023-02-15T19:46:40.821Z,4.1
2023-02-15T19:48:42.439Z,4.1
2023-02-15T19:50:43.912Z,4.1
2023-02-15T19:52:45.972Z,4.1
2023-02-15T19:54:47.214Z,4.1
2023-02-15T19:58:50.761Z,4.1
2023-02-15T20:00:51.808Z,4.1
2023-02-15T20:04:54.880Z,4.1
2023-02-15T20:06:56.509Z,4.1
2023-02-15T20:08:57.699Z,4.1
2023-02-15T20:10:58.916Z,4.1
2023-02-15T20:13:00.651Z,4.1
2023-02-15T20:15:02.057Z,4.1
2023-02-15T20:17:03.318Z,4.1
2023-02-15T20:19:04.793Z,4.1
2023-02-15T20:21:06.282Z,4.1
2023-02-15T20:23:07.787Z,4.1
2023-02-15T20:27:10.903Z,4.1
2023-02-15T20:29:12.529Z,4.1
2023-02-15T20:31:14.048Z,4.1
2023-02-15T20:33:15.247Z,4.09
2023-02-15T20:35:17.029Z,4.1
2023-02-15T20:39:19.463Z,4.09
2023-02-15T20:41:21.302Z,4.09
2023-02-15T20:43:23.507Z,4.09
2023-02-15T20:45:25.042Z,4.1
2023-02-15T20:47:27.677Z,4.09
2023-02-15T20:49:27.821Z,4.09
2023-02-15T20:53:30.785Z,4.09
2023-02-15T20:55:32.006Z,4.09
2023-02-15T20:57:33.230Z,4.09
2023-02-15T20:59:35.191Z,4.09
2023-02-15T21:03:38.677Z,4.08
2023-02-15T21:05:40.189Z,4.09
2023-02-15T21:09:43.247Z,4.09
2023-02-15T21:11:45.202Z,4.09
2023-02-15T21:13:47.101Z,4.09
2023-02-15T21:15:48.839Z,4.09
2023-02-15T21:19:51.147Z,4.09
2023-02-15T21:21:52.938Z,4.08
2023-02-15T21:25:56.008Z,4.09
2023-02-15T21:29:58.431Z,4.08
2023-02-15T21:32:00.396Z,4.09
2023-02-15T21:36:03.321Z,4.08
2023-02-15T21:40:06.568Z,4.08
2023-02-15T21:42:08.499Z,4.08
2023-02-15T21:46:11.646Z,4.08
2023-02-15T21:48:12.749Z,4.08
2023-02-15T21:52:15.550Z,4.08
2023-02-15T21:54:16.629Z,4.08
2023-02-15T21:56:18.293Z,4.08
2023-02-15T21:58:19.625Z,4.08
2023-02-15T22:02:21.872Z,4.08
2023-02-15T22:04:23.339Z,4.08
2023-02-15T22:06:24.940Z,4.08
2023-02-15T22:08:26.409Z,4.08
2023-02-15T22:12:29.526Z,4.08
2023-02-15T22:14:31.045Z,4.08
2023-02-15T22:18:34.659Z,4.08
2023-02-15T22:24:39.433Z,4.08
2023-02-15T22:26:41.414Z,4.08
2023-02-15T22:28:42.546Z,4.08
2023-02-15T22:30:43.993Z,4.08
2023-02-15T22:34:47.132Z,4.08
2023-02-15T22:36:48.575Z,4.08
2023-02-15T22:38:49.988Z,4.07
2023-02-15T22:40:51.828Z,4.07
2023-02-15T22:44:55.288Z,4.07
2023-02-15T22:46:57.233Z,4.07
2023-02-15T22:48:58.928Z,4.08
2023-02-15T22:51:01.216Z,4.07
2023-02-15T22:55:03.248Z,4.07
2023-02-15T22:57:04.943Z,4.07
2023-02-15T23:01:08.081Z,4.07
2023-02-15T23:03:09.419Z,4.07
2023-02-15T23:05:11.437Z,4.07
2023-02-15T23:09:13.994Z,4.07
2023-02-15T23:11:15.647Z,4.07
2023-02-15T23:13:17.100Z,4.07
2023-02-15T23:17:20.891Z,4.07
2023-02-15T23:19:22.522Z,4.07
2023-02-15T23:21:24.390Z,4.07
2023-02-15T23:23:26.155Z,4.07
2023-02-15T23:27:29.109Z,4.07
2023-02-15T23:29:30.384Z,4.07
2023-02-15T23:31:32.454Z,4.07
2023-02-15T23:33:34.289Z,4.06
2023-02-15T23:37:36.976Z,4.07
2023-02-15T23:39:38.443Z,4.06
2023-02-15T23:43:41.883Z,4.06
2023-02-15T23:49:46.803Z,4.06
2023-02-15T23:53:50.373Z,4.06
2023-02-15T23:55:51.664Z,4.06
2023-02-15T23:59:54.836Z,4.06
